createdAt,value
2018-01-18T00:01:45.789Z,2.72
2018-01-18T00:04:13.889Z,1.62
2018-01-18T00:06:42.139Z,0.98
2018-01-18T00:09:10.221Z,0.82
2018-01-18T00:11:38.374Z,0.65
2018-01-18T00:14:06.374Z,1.87
2018-01-18T00:16:34.385Z,1.00
2018-01-18T00:19:02.466Z,0.60
2018-01-18T00:21:30.427Z,1.02
2018-01-18T00:23:58.519Z,3.12
2018-01-18T00:26:26.524Z,0.85
2018-01-18T00:28:54.607Z,1.35
2018-01-18T00:31:22.595Z,1.80
2018-01-18T00:33:50.681Z,4.00
2018-01-18T00:36:18.802Z,1.30
2018-01-18T00:38:47.019Z,2.72
2018-01-18T00:41:15.162Z,3.53
2018-01-18T00:43:43.340Z,10.60
2018-01-18T00:46:11.501Z,4.28
2018-01-18T00:48:39.658Z,2.60
2018-01-18T00:51:07.656Z,2.60
2018-01-18T00:53:35.778Z,3.53
2018-01-18T00:56:03.779Z,2.12
2018-01-18T00:58:31.799Z,2.35
2018-01-18T01:00:59.819Z,2.62
2018-01-18T01:03:27.864Z,1.50
2018-01-18T01:05:55.984Z,1.48
2018-01-18T01:08:23.956Z,1.77
2018-01-18T01:10:52.247Z,1.48
2018-01-18T01:13:20.339Z,0.88
2018-01-18T01:15:48.542Z,1.77
2018-01-18T01:18:16.737Z,0.90
2018-01-18T01:20:45.017Z,0.93
2018-01-18T01:23:13.117Z,1.75
2018-01-18T01:25:41.324Z,1.77
2018-01-18T01:28:09.395Z,3.55
2018-01-18T01:30:37.418Z,0.60
2018-01-18T01:33:05.417Z,1.33
2018-01-18T01:35:33.377Z,3.78
2018-01-18T01:38:01.440Z,1.98
2018-01-18T01:40:29.495Z,1.98
2018-01-18T01:42:57.470Z,3.08
2018-01-18T01:45:25.582Z,1.05
2018-01-18T01:47:53.565Z,1.12
2018-01-18T01:50:21.742Z,2.37
2018-01-18T01:52:50.024Z,0.62
2018-01-18T01:55:18.115Z,0.80
2018-01-18T01:57:46.377Z,3.70
2018-01-18T02:00:14.522Z,1.73
2018-01-18T02:02:42.719Z,1.33
2018-01-18T02:05:10.717Z,0.88
2018-01-18T02:07:38.721Z,0.88
2018-01-18T02:10:06.834Z,2.90
2018-01-18T02:12:34.837Z,1.35
2018-01-18T02:15:02.873Z,1.02
2018-01-18T02:17:30.920Z,5.47
2018-01-18T02:19:58.942Z,0.93
2018-01-18T02:22:26.916Z,1.15
2018-01-18T02:24:54.917Z,0.65
2018-01-18T02:27:23.076Z,0.70
2018-01-18T02:29:51.215Z,2.35
2018-01-18T02:32:19.315Z,3.62
2018-01-18T02:34:47.500Z,3.42
2018-01-18T02:37:15.718Z,0.40
2018-01-18T02:39:44.954Z,0.80
2018-01-18T02:42:13.186Z,0.40
2018-01-18T02:44:41.220Z,1.00
2018-01-18T02:47:09.217Z,0.73
2018-01-18T02:49:37.354Z,2.17
2018-01-18T02:52:05.338Z,2.33
2018-01-18T02:54:33.497Z,1.02
2018-01-18T02:57:01.544Z,0.50
2018-01-18T02:59:29.638Z,0.70
2018-01-18T03:01:57.639Z,0.50
2018-01-18T03:04:25.736Z,0.65
2018-01-18T03:06:53.905Z,1.35
2018-01-18T03:09:21.962Z,0.80
2018-01-18T03:11:50.719Z,0.77
2018-01-18T03:14:18.916Z,3.90
2018-01-18T03:16:47.016Z,3.00
2018-01-18T03:19:15.198Z,0.70
2018-01-18T03:21:43.314Z,0.73
2018-01-18T03:24:11.314Z,1.40
2018-01-18T03:26:39.399Z,1.02
2018-01-18T03:29:07.405Z,2.10
2018-01-18T03:31:35.497Z,0.60
2018-01-18T03:34:03.500Z,3.47
2018-01-18T03:36:31.525Z,0.60
2018-01-18T03:38:59.479Z,3.05
2018-01-18T03:41:27.517Z,7.22
2018-01-18T03:43:55.656Z,4.50
2018-01-18T03:46:23.818Z,4.82
2018-01-18T03:48:52.000Z,6.28
2018-01-18T03:51:20.224Z,1.50
2018-01-18T03:53:48.298Z,4.55
2018-01-18T03:56:16.514Z,2.08
2018-01-18T03:58:44.523Z,1.73
2018-01-18T04:01:12.576Z,1.83
2018-01-18T04:03:40.599Z,1.25
2018-01-18T04:06:08.675Z,2.72
2018-01-18T04:08:36.665Z,4.22
2018-01-18T04:11:04.758Z,9.55
2018-01-18T04:13:32.694Z,17.30
2018-01-18T04:16:00.765Z,11.00
2018-01-18T04:18:28.758Z,10.43
2018-01-18T04:20:56.877Z,9.38
2018-01-18T04:23:24.958Z,9.20
2018-01-18T04:25:53.158Z,11.32
2018-01-18T04:28:21.360Z,8.90
2018-01-18T04:30:49.506Z,6.85
2018-01-18T04:33:17.717Z,7.75
2018-01-18T04:35:45.819Z,4.97
2018-01-18T04:38:13.815Z,5.95
2018-01-18T04:40:41.877Z,6.85
2018-01-18T04:43:09.839Z,8.25
2018-01-18T04:45:37.976Z,4.75
2018-01-18T04:48:05.918Z,3.92
2018-01-18T04:50:34.064Z,2.47
2018-01-18T04:53:02.016Z,2.40
2018-01-18T04:55:30.143Z,2.40
2018-01-18T04:57:58.284Z,5.57
2018-01-18T05:00:26.517Z,5.43
2018-01-18T05:02:54.673Z,2.30
2018-01-18T05:05:22.834Z,2.58
2018-01-18T05:07:51.143Z,2.03
2018-01-18T05:10:19.428Z,4.95
2018-01-18T05:12:47.433Z,1.95
2018-01-18T05:15:15.408Z,3.15
2018-01-18T05:17:43.396Z,2.42
2018-01-18T05:20:11.320Z,9.27
2018-01-18T05:22:39.422Z,3.42
2018-01-18T05:25:07.364Z,4.05
2018-01-18T05:27:35.397Z,2.78
2018-01-18T05:30:03.394Z,2.58
2018-01-18T05:32:31.478Z,3.05
2018-01-18T05:34:59.639Z,2.72
2018-01-18T05:37:27.757Z,8.38
2018-01-18T05:39:55.956Z,2.42
2018-01-18T05:42:24.164Z,9.63
2018-01-18T05:44:52.323Z,7.50
2018-01-18T05:47:20.434Z,4.18
2018-01-18T05:49:48.434Z,4.15
2018-01-18T05:52:16.514Z,4.03
2018-01-18T05:54:44.518Z,3.70
2018-01-18T05:57:12.624Z,5.50
2018-01-18T05:59:40.634Z,10.55
2018-01-18T06:02:08.684Z,6.03
2018-01-18T06:04:36.702Z,4.35
2018-01-18T06:07:04.764Z,7.32
2018-01-18T06:09:32.734Z,5.37
2018-01-18T06:12:00.829Z,6.97
2018-01-18T06:14:28.814Z,6.35
2018-01-18T06:16:56.822Z,6.87
2018-01-18T06:19:24.828Z,3.67
2018-01-18T06:21:53.715Z,12.37
2018-01-18T06:24:21.814Z,10.40
2018-01-18T06:26:49.975Z,8.73
2018-01-18T06:29:18.134Z,9.82
2018-01-18T06:31:46.339Z,11.05
2018-01-18T06:34:14.424Z,10.93
2018-01-18T06:36:42.622Z,7.75
2018-01-18T06:39:10.722Z,8.98
2018-01-18T06:41:38.918Z,5.68
2018-01-18T06:44:07.006Z,7.70
2018-01-18T06:46:36.320Z,7.07
2018-01-18T06:49:04.513Z,8.00
2018-01-18T06:51:32.803Z,7.60
2018-01-18T06:54:01.118Z,8.30
2018-01-18T06:56:29.302Z,7.75
2018-01-18T06:58:57.596Z,5.53
2018-01-18T07:01:25.998Z,3.83
2018-01-18T07:03:54.298Z,7.22
2018-01-18T07:06:22.438Z,5.70
2018-01-18T07:08:50.457Z,5.82
2018-01-18T07:11:18.523Z,8.70
2018-01-18T07:13:46.467Z,9.82
2018-01-18T07:16:14.549Z,7.20
2018-01-18T07:18:42.505Z,7.40
2018-01-18T07:21:10.508Z,6.60
2018-01-18T07:23:38.479Z,7.85
2018-01-18T07:26:06.458Z,11.70
2018-01-18T07:28:34.639Z,9.45
2018-01-18T07:31:02.702Z,10.95
2018-01-18T07:33:30.785Z,11.48
2018-01-18T07:35:58.883Z,16.60
2018-01-18T07:38:27.085Z,15.05
2018-01-18T07:40:55.303Z,17.12
2018-01-18T07:43:23.408Z,23.40
2018-01-18T07:45:51.436Z,18.90
2018-01-18T07:48:19.497Z,26.80
2018-01-18T07:50:47.489Z,24.23
2018-01-18T07:53:15.638Z,23.20
2018-01-18T07:55:43.643Z,17.85
2018-01-18T07:58:11.815Z,12.52
2018-01-18T08:00:39.839Z,17.27
2018-01-18T08:03:08.943Z,18.33
2018-01-18T08:05:36.934Z,14.02
2018-01-18T08:08:05.063Z,12.15
2018-01-18T08:10:33.239Z,12.77
2018-01-18T08:13:01.436Z,13.90
2018-01-18T08:15:29.640Z,12.13
2018-01-18T08:17:58.016Z,14.68
2018-01-18T08:20:26.117Z,12.57
2018-01-18T08:22:54.237Z,13.18
2018-01-18T08:25:22.217Z,14.15
2018-01-18T08:27:50.310Z,11.75
2018-01-18T08:30:18.262Z,10.57
2018-01-18T08:32:46.667Z,16.37
2018-01-18T08:35:15.659Z,15.57
2018-01-18T08:37:43.836Z,8.57
2018-01-18T08:40:12.041Z,7.93
2018-01-18T08:42:40.225Z,6.53
2018-01-18T08:45:08.317Z,7.68
2018-01-18T08:47:36.739Z,7.18
2018-01-18T08:50:05.028Z,7.15
2018-01-18T08:52:33.317Z,7.05
2018-01-18T08:55:01.616Z,7.85
2018-01-18T08:57:29.918Z,7.05
2018-01-18T08:59:58.201Z,5.53
2018-01-18T09:02:26.397Z,6.22
2018-01-18T09:04:54.602Z,8.90
2018-01-18T09:07:22.694Z,8.27
2018-01-18T09:09:50.683Z,8.10
2018-01-18T09:12:18.817Z,10.95
2018-01-18T09:14:47.054Z,13.68
2018-01-18T09:17:15.260Z,9.40
2018-01-18T09:19:43.356Z,9.30
2018-01-18T09:22:11.565Z,6.62
2018-01-18T09:24:39.980Z,4.72
2018-01-18T09:27:08.238Z,3.00
2018-01-18T09:29:36.536Z,6.43
2018-01-18T09:32:04.736Z,7.03
2018-01-18T09:34:33.036Z,5.25
2018-01-18T09:37:01.227Z,5.15
2018-01-18T09:39:29.616Z,4.47
2018-01-18T09:41:57.817Z,4.45
2018-01-18T09:44:26.009Z,5.10
2018-01-18T09:46:54.098Z,6.80
2018-01-18T09:49:22.293Z,8.05
2018-01-18T09:51:50.348Z,5.65
2018-01-18T09:54:18.578Z,6.53
2018-01-18T09:56:46.786Z,8.82
2018-01-18T09:59:14.978Z,9.45
2018-01-18T10:01:43.069Z,9.77
2018-01-18T10:04:13.295Z,4.35
2018-01-18T10:06:41.639Z,7.53
2018-01-18T10:09:10.005Z,4.55
2018-01-18T10:11:38.299Z,5.30
2018-01-18T10:14:06.498Z,8.82
2018-01-18T10:16:34.889Z,9.73
2018-01-18T10:19:03.186Z,9.45
2018-01-18T10:21:31.482Z,6.80
2018-01-18T10:23:59.786Z,4.95
2018-01-18T10:26:27.989Z,5.95
2018-01-18T10:28:56.076Z,7.07
2018-01-18T10:31:24.149Z,7.70
2018-01-18T10:33:52.360Z,8.10
2018-01-18T10:36:21.066Z,7.37
2018-01-18T10:38:49.266Z,4.20
2018-01-18T10:41:17.341Z,4.80
2018-01-18T10:43:45.745Z,8.48
2018-01-18T10:46:13.842Z,8.27
2018-01-18T10:48:42.138Z,8.77
2018-01-18T10:51:10.319Z,9.80
2018-01-18T10:53:38.622Z,7.40
2018-01-18T10:56:06.924Z,9.77
2018-01-18T10:58:35.123Z,5.97
2018-01-18T11:01:03.515Z,9.88
2018-01-18T11:03:31.712Z,7.75
2018-01-18T11:06:00.105Z,11.68
2018-01-18T11:08:28.312Z,7.25
2018-01-18T11:10:56.298Z,8.75
2018-01-18T11:13:25.711Z,10.57
2018-01-18T11:15:53.796Z,8.70
2018-01-18T11:18:22.004Z,7.03
2018-01-18T11:20:50.200Z,8.90
2018-01-18T11:23:18.387Z,6.87
2018-01-18T11:25:46.592Z,6.87
2018-01-18T11:28:14.876Z,10.85
2018-01-18T11:30:43.175Z,9.25
2018-01-18T11:33:11.364Z,7.82
2018-01-18T11:35:39.660Z,7.55
2018-01-18T11:38:07.854Z,5.55
2018-01-18T11:40:36.576Z,8.68
2018-01-18T11:58:27.878Z,12.40
2018-01-18T12:00:55.978Z,9.88
2018-01-18T12:03:24.484Z,8.13
2018-01-18T12:05:52.806Z,10.03
2018-01-18T12:08:20.784Z,11.63
2018-01-18T12:10:49.474Z,11.60
2018-01-18T12:13:17.767Z,11.13
2018-01-18T12:15:46.069Z,9.03
2018-01-18T12:18:14.835Z,9.13
2018-01-18T12:20:49.258Z,8.27
2018-01-18T12:23:17.863Z,5.82
2018-01-18T12:25:47.272Z,9.27
2018-01-18T12:28:16.167Z,11.85
2018-01-18T12:30:44.589Z,9.38
2018-01-18T12:33:14.367Z,5.55
2018-01-18T12:35:43.508Z,8.48
2018-01-18T12:38:12.362Z,6.18
2018-01-18T12:40:41.907Z,5.80
2018-01-18T12:43:10.758Z,5.60
2018-01-18T12:45:39.704Z,5.85
2018-01-18T12:48:08.444Z,5.97
2018-01-18T12:50:36.962Z,6.60
2018-01-18T12:53:05.275Z,4.35
2018-01-18T12:55:34.164Z,5.65
2018-01-18T12:58:02.333Z,5.05
2018-01-18T13:00:35.144Z,8.30
2018-01-18T13:03:06.602Z,6.50
2018-01-18T13:08:11.794Z,5.18
2018-01-18T13:10:42.335Z,6.60
2018-01-18T13:13:10.754Z,5.32
2018-01-18T13:15:40.363Z,7.43
2018-01-18T13:18:08.680Z,7.07
2018-01-18T13:20:37.675Z,5.20
2018-01-18T13:23:06.796Z,8.88
2018-01-18T13:25:35.195Z,6.28
2018-01-18T13:28:03.535Z,7.22
2018-01-18T13:30:32.726Z,4.47
2018-01-18T13:33:02.216Z,7.35
2018-01-18T13:35:30.945Z,11.12
2018-01-18T13:37:59.377Z,8.80
2018-01-18T13:40:28.124Z,4.72
2018-01-18T13:42:56.334Z,5.82
2018-01-18T13:45:24.503Z,3.05
2018-01-18T13:47:53.643Z,7.72
2018-01-18T13:50:22.242Z,3.12
2018-01-18T13:52:50.755Z,2.83
2018-01-18T13:55:19.255Z,4.35
2018-01-18T13:57:48.495Z,5.43
2018-01-18T14:00:16.855Z,2.90
2018-01-18T14:02:45.055Z,7.87
2018-01-18T14:05:13.355Z,2.78
2018-01-18T14:07:41.544Z,1.25
2018-01-18T14:10:09.765Z,6.12
2018-01-18T14:12:38.048Z,2.08
2018-01-18T14:15:06.163Z,2.30
2018-01-18T14:17:34.183Z,1.05
2018-01-18T14:20:02.425Z,2.45
2018-01-18T14:22:30.765Z,1.40
2018-01-18T14:24:58.763Z,0.90
2018-01-18T14:27:27.509Z,5.97
2018-01-18T14:29:55.810Z,2.37
2018-01-18T14:32:24.108Z,5.87
2018-01-18T14:34:52.374Z,6.30
2018-01-18T14:37:20.706Z,0.68
2018-01-18T14:39:49.006Z,1.77
2018-01-18T14:42:17.267Z,2.90
2018-01-18T14:44:46.578Z,0.75
2018-01-18T14:47:14.735Z,2.87
2018-01-18T14:49:43.000Z,2.53
2018-01-18T14:52:11.188Z,0.73
2018-01-18T14:54:39.511Z,2.55
2018-01-18T14:57:07.677Z,0.90
2018-01-18T14:59:35.779Z,2.22
2018-01-18T15:02:03.971Z,0.68
2018-01-18T15:04:32.073Z,0.60
2018-01-18T15:07:00.252Z,1.12
2018-01-18T15:09:28.562Z,0.60
2018-01-18T15:11:56.753Z,1.65
2018-01-18T15:14:25.040Z,0.93
2018-01-18T15:16:53.346Z,3.10
2018-01-18T15:19:21.439Z,0.98
2018-01-18T15:21:49.840Z,2.10
2018-01-18T15:24:18.123Z,0.60
2018-01-18T15:26:46.424Z,0.90
2018-01-18T15:29:14.610Z,1.27
2018-01-18T15:31:42.810Z,1.45
2018-01-18T15:34:11.070Z,0.90
2018-01-18T15:36:39.415Z,2.75
2018-01-18T15:39:07.502Z,1.50
2018-01-18T15:41:35.692Z,2.00
2018-01-18T15:44:03.985Z,0.90
2018-01-18T15:46:32.181Z,1.85
2018-01-18T15:49:00.379Z,1.23
2018-01-18T15:51:28.582Z,1.75
2018-01-18T15:53:56.759Z,1.37
2018-01-18T15:56:25.076Z,1.60
2018-01-18T15:58:53.366Z,1.40
2018-01-18T16:01:21.558Z,5.03
2018-01-18T16:03:49.844Z,2.10
2018-01-18T16:06:18.145Z,0.77
2018-01-18T16:08:46.141Z,2.95
2018-01-18T16:11:14.335Z,2.80
2018-01-18T16:13:42.431Z,1.42
2018-01-18T16:16:10.938Z,2.25
2018-01-18T16:18:39.124Z,1.27
2018-01-18T16:21:07.208Z,1.10
2018-01-18T16:23:35.307Z,1.40
2018-01-18T16:26:03.607Z,6.82
2018-01-18T16:28:31.679Z,2.37
2018-01-18T16:30:59.889Z,0.70
2018-01-18T16:33:28.189Z,1.87
2018-01-18T16:35:56.592Z,2.70
2018-01-18T16:38:24.977Z,2.20
2018-01-18T16:40:53.311Z,1.10
2018-01-18T16:43:21.577Z,1.20
2018-01-18T16:45:49.881Z,2.35
2018-01-18T16:48:18.195Z,1.15
2018-01-18T16:50:46.357Z,2.80
2018-01-18T16:53:14.357Z,2.78
2018-01-18T16:55:42.576Z,2.17
2018-01-18T16:58:10.885Z,1.95
2018-01-18T17:00:39.145Z,1.33
2018-01-18T17:03:07.347Z,4.82
2018-01-18T17:05:35.531Z,1.42
2018-01-18T17:08:03.627Z,2.35
2018-01-18T17:10:31.920Z,1.90
2018-01-18T17:13:00.119Z,2.40
2018-01-18T17:15:28.199Z,1.70
2018-01-18T17:17:56.399Z,0.80
2018-01-18T17:20:24.600Z,3.42
2018-01-18T17:22:52.795Z,1.20
2018-01-18T17:25:20.890Z,1.73
2018-01-18T17:27:49.077Z,1.67
2018-01-18T17:30:17.284Z,1.35
2018-01-18T17:32:45.468Z,2.58
2018-01-18T17:35:13.546Z,4.95
2018-01-18T17:37:41.647Z,4.10
2018-01-18T17:40:09.745Z,2.50
2018-01-18T17:42:37.946Z,1.52
2018-01-18T17:45:06.126Z,4.85
2018-01-18T17:47:34.286Z,2.78
2018-01-18T17:50:02.927Z,1.90
2018-01-18T17:52:31.122Z,0.70
2018-01-18T17:54:59.206Z,1.83
2018-01-18T17:57:27.406Z,1.65
2018-01-18T17:59:55.486Z,3.37
2018-01-18T18:02:23.715Z,1.40
2018-01-18T18:04:51.886Z,1.10
2018-01-18T18:07:20.076Z,1.58
2018-01-18T18:09:48.176Z,3.65
2018-01-18T18:12:16.477Z,1.70
2018-01-18T18:14:44.560Z,1.10
2018-01-18T18:17:12.757Z,1.10
2018-01-18T18:19:40.861Z,3.30
2018-01-18T18:22:09.464Z,2.00
2018-01-18T18:24:37.657Z,2.70
2018-01-18T18:27:05.838Z,10.70
2018-01-18T18:29:34.038Z,3.25
2018-01-18T18:32:02.137Z,1.10
2018-01-18T18:34:30.219Z,1.87
2018-01-18T18:36:58.424Z,1.55
2018-01-18T18:39:26.520Z,1.45
2018-01-18T18:41:54.598Z,0.85
2018-01-18T18:44:22.797Z,1.15
2018-01-18T18:46:51.397Z,1.62
2018-01-18T18:49:20.309Z,2.62
2018-01-18T18:51:48.405Z,3.97
2018-01-18T18:54:16.489Z,3.87
2018-01-18T18:56:44.597Z,1.67
2018-01-18T18:59:12.769Z,0.95
2018-01-18T19:01:40.873Z,4.62
2018-01-18T19:04:08.972Z,2.55
2018-01-18T19:06:37.152Z,2.28
2018-01-18T19:09:05.253Z,1.75
2018-01-18T19:11:33.333Z,3.03
2018-01-18T19:14:01.433Z,5.53
2018-01-18T19:16:30.133Z,3.60
2018-01-18T19:18:58.233Z,2.15
2018-01-18T19:21:26.732Z,1.70
2018-01-18T19:23:55.022Z,1.25
2018-01-18T19:26:23.232Z,1.95
2018-01-18T19:28:51.515Z,1.87
2018-01-18T19:31:19.812Z,3.30
2018-01-18T19:33:48.414Z,2.25
2018-01-18T19:36:16.520Z,2.45
2018-01-18T19:38:44.707Z,3.00
2018-01-18T19:41:12.799Z,2.45
2018-01-18T19:43:40.944Z,2.37
2018-01-18T19:46:09.184Z,2.25
2018-01-18T19:48:37.476Z,3.22
2018-01-18T19:51:05.673Z,3.45
2018-01-18T19:53:33.707Z,3.08
2018-01-18T19:56:02.069Z,3.37
2018-01-18T19:58:30.263Z,4.55
2018-01-18T20:00:58.363Z,1.87
2018-01-18T20:03:26.443Z,4.62
2018-01-18T20:05:54.538Z,3.83
2018-01-18T20:08:22.736Z,2.67
2018-01-18T20:10:51.030Z,2.60
2018-01-18T20:13:19.242Z,5.18
2018-01-18T20:15:47.525Z,4.62
2018-01-18T20:18:15.706Z,2.12
2018-01-18T20:20:43.907Z,2.25
2018-01-18T20:23:12.006Z,10.77
2018-01-18T20:25:40.405Z,2.25
2018-01-18T20:28:08.513Z,2.22
2018-01-18T20:30:36.887Z,1.60
2018-01-18T20:33:05.193Z,1.73
2018-01-18T20:35:33.294Z,30.10
2018-01-18T20:38:01.574Z,7.25
2018-01-18T20:40:29.767Z,2.30
2018-01-18T20:42:57.967Z,5.30
2018-01-18T20:45:26.166Z,8.10
2018-01-18T20:47:54.245Z,3.85
2018-01-18T20:50:22.345Z,2.65
2018-01-18T20:52:50.426Z,4.12
2018-01-18T20:55:18.526Z,1.80
2018-01-18T20:57:46.626Z,6.37
2018-01-18T21:00:14.706Z,3.53
2018-01-18T21:02:42.905Z,2.10
2018-01-18T21:05:11.006Z,3.28
2018-01-18T21:07:39.214Z,5.03
2018-01-18T21:10:07.386Z,3.00
2018-01-18T21:12:35.407Z,4.80
2018-01-18T21:15:03.452Z,7.12
2018-01-18T21:17:31.779Z,4.97
2018-01-18T21:19:59.863Z,3.28
2018-01-18T21:22:27.942Z,3.10
2018-01-18T21:24:56.045Z,2.40
2018-01-18T21:27:24.253Z,6.82
2018-01-18T21:29:52.334Z,3.70
2018-01-18T21:32:20.518Z,5.70
2018-01-18T21:34:48.615Z,3.55
2018-01-18T21:37:16.809Z,4.93
2018-01-18T21:39:44.998Z,5.07
2018-01-18T21:42:13.190Z,3.05
2018-01-18T21:44:41.484Z,3.17
2018-01-18T21:47:09.698Z,2.33
2018-01-18T21:49:37.994Z,3.28
2018-01-18T21:52:06.077Z,5.40
2018-01-18T21:54:34.286Z,3.15
2018-01-18T21:57:02.451Z,4.20
2018-01-18T21:59:30.670Z,4.03
2018-01-18T22:01:58.757Z,2.45
2018-01-18T22:04:26.946Z,5.70
2018-01-18T22:06:55.037Z,5.47
2018-01-18T22:09:23.236Z,2.85
2018-01-18T22:11:51.441Z,3.00
2018-01-18T22:14:19.659Z,5.60
2018-01-18T22:16:47.814Z,5.50
2018-01-18T22:19:16.001Z,3.17
2018-01-18T22:21:44.098Z,2.92
2018-01-18T22:24:12.291Z,2.90
2018-01-18T22:26:40.600Z,11.70
2018-01-18T22:29:08.792Z,3.78
2018-01-18T22:31:36.874Z,5.12
2018-01-18T22:34:05.060Z,4.90
2018-01-18T22:36:33.273Z,3.65
2018-01-18T22:39:01.352Z,7.40
2018-01-18T22:41:29.351Z,6.45
2018-01-18T22:43:57.613Z,3.50
2018-01-18T22:46:26.053Z,2.92
2018-01-18T22:48:54.232Z,3.95
2018-01-18T22:51:22.331Z,3.08
2018-01-18T22:53:50.634Z,3.42
2018-01-18T22:56:18.716Z,5.03
2018-01-18T22:58:46.915Z,4.55
2018-01-18T23:01:15.115Z,4.50
2018-01-18T23:03:43.295Z,3.72
2018-01-18T23:06:11.413Z,4.10
2018-01-18T23:08:39.594Z,5.82
2018-01-18T23:11:07.784Z,6.35
2018-01-18T23:13:35.974Z,4.12
2018-01-18T23:16:04.073Z,4.75
2018-01-18T23:18:32.274Z,6.70
2018-01-18T23:21:00.674Z,4.05
2018-01-18T23:23:29.009Z,6.35
2018-01-18T23:25:57.059Z,5.18
2018-01-18T23:28:25.254Z,4.45
2018-01-18T23:30:53.434Z,5.95
2018-01-18T23:33:21.634Z,7.45
2018-01-18T23:35:49.734Z,3.00
2018-01-18T23:38:17.914Z,2.85
2018-01-18T23:40:46.114Z,8.50
2018-01-18T23:43:14.314Z,2.95
2018-01-18T23:45:42.414Z,4.70
2018-01-18T23:48:10.598Z,2.95
2018-01-18T23:50:38.698Z,4.50
2018-01-18T23:53:06.878Z,4.37
2018-01-18T23:55:35.078Z,7.55
2018-01-18T23:58:03.178Z,6.85
